createdAt,value
2019-06-26T00:04:58.651Z,11.95
2019-06-26T00:10:07.700Z,12.73
2019-06-26T00:15:14.892Z,12.80
2019-06-26T00:20:18.050Z,12.65
2019-06-26T00:25:40.693Z,12.75
2019-06-26T00:30:56.918Z,12.13
2019-06-26T00:36:09.554Z,13.30
2019-06-26T00:41:23.102Z,13.55
2019-06-26T00:46:27.040Z,12.80
2019-06-26T00:51:34.324Z,12.85
2019-06-26T00:56:38.770Z,13.70
2019-06-26T01:01:44.162Z,12.95
2019-06-26T01:07:05.717Z,13.70
2019-06-26T01:12:09.957Z,13.53
2019-06-26T01:17:29.766Z,14.28
2019-06-26T01:22:40.438Z,13.35
2019-06-26T01:33:13.120Z,13.43
2019-06-26T01:38:17.320Z,12.98
2019-06-26T01:43:20.258Z,14.70
2019-06-26T01:48:23.038Z,14.90
2019-06-26T01:53:25.405Z,14.40
2019-06-26T01:58:28.320Z,14.38
2019-06-26T02:03:31.476Z,15.70
2019-06-26T02:08:33.552Z,14.80
2019-06-26T02:13:42.257Z,15.23
2019-06-26T02:18:59.076Z,14.40
2019-06-26T02:24:01.664Z,14.38
2019-06-26T02:29:19.614Z,15.15
2019-06-26T02:34:21.875Z,14.50
2019-06-26T02:39:27.901Z,15.00
2019-06-26T02:44:51.460Z,14.43
2019-06-26T02:49:38.851Z,15.00
2019-06-26T02:54:43.087Z,14.78
2019-06-26T02:59:45.488Z,14.33
2019-06-26T03:04:50.630Z,14.83
2019-06-26T03:09:53.669Z,14.33
2019-06-26T03:15:08.163Z,13.93
2019-06-26T03:20:02.543Z,14.95
2019-06-26T03:25:06.110Z,14.98
2019-06-26T03:30:10.424Z,15.55
2019-06-26T03:35:13.117Z,15.20
2019-06-26T03:40:15.599Z,15.18
2019-06-26T03:45:25.611Z,14.98
2019-06-26T03:50:24.790Z,15.23
2019-06-26T03:55:34.299Z,15.58
2019-06-26T04:00:41.170Z,14.25
2019-06-26T04:05:45.754Z,15.30
2019-06-26T04:10:47.846Z,14.78
2019-06-26T04:15:51.063Z,15.93
2019-06-26T04:20:56.098Z,15.95
2019-06-26T04:26:01.547Z,15.78
2019-06-26T04:31:06.954Z,15.43
2019-06-26T04:36:09.682Z,16.45
2019-06-26T04:41:14.223Z,15.18
2019-06-26T04:46:19.321Z,15.60
2019-06-26T04:51:23.641Z,14.93
2019-06-26T04:56:25.694Z,15.55
2019-06-26T05:01:27.777Z,16.05
2019-06-26T05:06:32.817Z,16.07
2019-06-26T05:11:35.890Z,15.88
2019-06-26T05:16:39.744Z,16.45
2019-06-26T05:21:42.354Z,15.95
2019-06-26T05:26:44.392Z,16.07
2019-06-26T05:31:49.571Z,15.95
2019-06-26T05:36:55.281Z,16.07
2019-06-26T05:41:59.011Z,15.50
2019-06-26T05:47:01.041Z,16.10
2019-06-26T05:52:05.115Z,15.50
2019-06-26T05:57:07.532Z,16.27
2019-06-26T06:02:09.843Z,16.20
2019-06-26T06:07:12.519Z,15.55
2019-06-26T06:12:15.328Z,16.97
2019-06-26T06:17:19.316Z,16.85
2019-06-26T06:22:22.534Z,16.60
2019-06-26T06:27:26.916Z,15.48
2019-06-26T06:32:30.985Z,15.70
2019-06-26T06:37:46.766Z,15.20
2019-06-26T06:42:49.182Z,15.43
2019-06-26T06:47:55.904Z,15.60
2019-06-26T06:52:58.976Z,14.23
2019-06-26T06:58:04.182Z,14.38
2019-06-26T07:03:15.567Z,15.23
2019-06-26T07:08:19.818Z,13.65
2019-06-26T07:13:30.596Z,12.55
2019-06-26T07:18:33.991Z,12.47
2019-06-26T07:23:36.757Z,11.53
2019-06-26T07:28:39.439Z,13.35
2019-06-26T07:33:45.853Z,11.93
2019-06-26T07:38:50.549Z,11.70
2019-06-26T07:43:53.345Z,11.83
2019-06-26T07:50:03.282Z,11.60
2019-06-26T07:55:11.896Z,11.43
2019-06-26T08:00:17.388Z,11.03
2019-06-26T08:05:21.311Z,11.70
2019-06-26T08:10:25.647Z,10.68
2019-06-26T08:15:28.561Z,11.45
2019-06-26T08:20:30.750Z,11.78
2019-06-26T08:25:33.928Z,11.90
2019-06-26T08:30:39.777Z,11.18
2019-06-26T08:35:45.465Z,10.40
2019-06-26T08:40:50.571Z,11.50
2019-06-26T08:45:54.180Z,10.75
2019-06-26T08:51:02.775Z,10.68
2019-06-26T08:56:06.641Z,9.78
2019-06-26T09:01:09.652Z,9.50
2019-06-26T09:06:13.176Z,9.73
2019-06-26T09:11:16.568Z,10.08
2019-06-26T09:16:19.798Z,9.58
2019-06-26T09:21:26.179Z,8.73
2019-06-26T09:26:32.818Z,6.35
2019-06-26T09:31:37.082Z,7.25
2019-06-26T09:36:42.251Z,7.37
2019-06-26T09:41:48.817Z,6.47
2019-06-26T09:46:50.899Z,7.45
2019-06-26T09:51:54.581Z,6.58
2019-06-26T09:56:59.811Z,6.70
2019-06-26T10:02:02.675Z,5.47
2019-06-26T10:07:07.526Z,5.83
2019-06-26T10:12:11.938Z,5.67
2019-06-26T10:17:16.678Z,5.50
2019-06-26T10:22:18.701Z,6.00
2019-06-26T10:27:23.794Z,6.03
2019-06-26T10:32:27.678Z,5.97
2019-06-26T10:37:34.561Z,6.15
2019-06-26T10:42:36.961Z,6.70
2019-06-26T10:47:41.802Z,7.20
2019-06-26T10:52:44.684Z,7.20
2019-06-26T10:57:47.152Z,6.58
2019-06-26T11:02:49.269Z,6.97
2019-06-26T11:07:53.331Z,6.80
2019-06-26T11:12:58.425Z,7.08
2019-06-26T11:18:00.523Z,6.85
2019-06-26T11:23:02.600Z,6.97
2019-06-26T11:28:09.209Z,6.83
2019-06-26T11:33:15.271Z,6.85
2019-06-26T11:38:17.405Z,6.95
2019-06-26T11:43:19.856Z,7.12
2019-06-26T11:48:22.385Z,6.83
2019-06-26T11:53:32.290Z,7.25
2019-06-26T11:58:38.257Z,7.30
2019-06-26T12:03:47.007Z,7.05
2019-06-26T12:08:49.898Z,6.67
2019-06-26T12:13:52.622Z,6.95
2019-06-26T12:18:54.639Z,6.85
2019-06-26T12:23:59.758Z,7.05
2019-06-26T12:29:01.854Z,7.20
2019-06-26T12:34:04.636Z,6.42
2019-06-26T12:39:06.969Z,7.00
2019-06-26T12:44:09.925Z,7.10
2019-06-26T12:49:15.285Z,6.85
2019-06-26T12:54:19.542Z,6.95
2019-06-26T12:59:24.897Z,6.40
2019-06-26T13:04:28.426Z,7.08
2019-06-26T13:09:31.713Z,6.85
2019-06-26T13:14:33.775Z,6.60
2019-06-26T13:19:35.950Z,6.17
2019-06-26T13:24:43.648Z,6.47
2019-06-26T13:29:46.557Z,6.78
2019-06-26T13:34:50.031Z,6.35
2019-06-26T13:39:52.201Z,6.45
2019-06-26T13:44:55.454Z,6.50
2019-06-26T13:49:57.496Z,6.10
2019-06-26T13:54:59.838Z,6.20
2019-06-26T14:00:01.860Z,6.33
2019-06-26T14:05:04.204Z,6.70
2019-06-26T14:10:09.414Z,6.80
2019-06-26T14:15:12.172Z,6.75
2019-06-26T14:20:14.374Z,7.20
2019-06-26T14:25:16.649Z,6.95
2019-06-26T14:30:21.254Z,7.22
2019-06-26T14:35:25.517Z,7.22
2019-06-26T14:40:27.587Z,7.12
2019-06-26T14:45:33.076Z,6.85
2019-06-26T14:50:35.102Z,6.92
2019-06-26T14:55:39.242Z,6.62
2019-06-26T15:00:41.259Z,7.03
2019-06-26T15:05:43.263Z,6.80
2019-06-26T15:10:47.075Z,7.80
2019-06-26T15:15:49.069Z,7.10
2019-06-26T15:20:51.423Z,6.90
2019-06-26T15:25:56.400Z,6.03
2019-06-26T15:30:59.135Z,6.10
2019-06-26T15:36:01.211Z,5.15
2019-06-26T15:41:03.761Z,5.20
2019-06-26T15:46:05.768Z,5.22
2019-06-26T15:51:07.843Z,5.22
2019-06-26T15:56:10.800Z,5.15
2019-06-26T16:01:16.726Z,5.92
2019-06-26T16:06:19.093Z,5.70
2019-06-26T16:11:21.481Z,5.90
2019-06-26T16:16:25.330Z,6.08
2019-06-26T16:21:30.790Z,6.58
2019-06-26T16:26:33.597Z,6.85
2019-06-26T16:31:37.484Z,7.05
2019-06-26T16:36:40.657Z,6.78
2019-06-26T16:41:42.923Z,6.90
2019-06-26T16:46:45.664Z,6.05
2019-06-26T16:51:49.440Z,6.62
2019-06-26T16:56:51.973Z,7.47
2019-06-26T17:01:54.012Z,6.83
2019-06-26T17:06:56.358Z,6.78
2019-06-26T17:11:58.781Z,6.83
2019-06-26T17:17:00.815Z,6.35
2019-06-26T17:22:07.030Z,6.80
2019-06-26T17:27:09.039Z,6.85
2019-06-26T17:32:11.409Z,6.78
2019-06-26T17:37:15.683Z,6.40
2019-06-26T17:42:19.119Z,6.28
2019-06-26T17:47:21.983Z,6.42
2019-06-26T17:52:24.045Z,7.12
2019-06-26T17:57:28.873Z,6.97
2019-06-26T18:02:31.877Z,7.20
2019-06-26T18:07:33.884Z,6.75
2019-06-26T18:12:39.523Z,6.58
2019-06-26T18:17:43.142Z,6.72
2019-06-26T18:22:45.207Z,6.80
2019-06-26T18:27:47.213Z,6.75
2019-06-26T18:33:09.389Z,6.87
2019-06-26T18:38:11.524Z,6.80
2019-06-26T18:43:15.901Z,8.78
2019-06-26T18:48:17.997Z,8.93
2019-06-26T18:53:27.662Z,10.10
2019-06-26T18:58:33.991Z,10.78
2019-06-26T19:03:40.222Z,10.28
2019-06-26T19:08:45.246Z,10.53
2019-06-26T19:13:48.076Z,10.75
2019-06-26T19:18:51.233Z,10.00
2019-06-26T19:24:09.157Z,10.10
2019-06-26T19:28:59.357Z,9.80
2019-06-26T19:34:02.128Z,9.70
2019-06-26T19:39:06.357Z,8.73
2019-06-26T19:44:11.344Z,9.23
2019-06-26T19:49:17.069Z,8.58
2019-06-26T19:54:27.066Z,9.13
2019-06-26T19:59:24.153Z,9.18
2019-06-26T20:04:26.138Z,9.20
2019-06-26T20:09:28.156Z,8.65
2019-06-26T20:14:32.063Z,8.80
2019-06-26T20:19:35.552Z,8.60
2019-06-26T20:24:44.610Z,8.73
2019-06-26T20:29:48.317Z,8.93
2019-06-26T20:34:53.297Z,9.28
2019-06-26T20:39:56.371Z,9.88
2019-06-26T20:45:15.034Z,10.65
2019-06-26T20:50:21.644Z,10.28
2019-06-26T20:55:25.326Z,10.10
2019-06-26T21:00:27.444Z,10.50
2019-06-26T21:05:31.366Z,10.45
2019-06-26T21:10:33.391Z,9.73
2019-06-26T21:15:36.721Z,10.65
2019-06-26T21:20:40.296Z,11.28
2019-06-26T21:25:42.336Z,10.90
2019-06-26T21:30:45.175Z,10.20
2019-06-26T21:35:48.629Z,10.93
2019-06-26T21:40:50.972Z,10.53
2019-06-26T21:45:54.491Z,10.05
2019-06-26T21:50:56.538Z,10.63
2019-06-26T21:55:59.356Z,10.03
2019-06-26T22:01:05.937Z,10.93
2019-06-26T22:06:08.263Z,9.90
2019-06-26T22:11:10.728Z,10.55
2019-06-26T22:16:13.422Z,9.88
2019-06-26T22:21:16.491Z,10.50
2019-06-26T22:26:18.980Z,10.95
2019-06-26T22:31:21.087Z,10.08
2019-06-26T22:36:24.218Z,10.53
2019-06-26T22:41:28.553Z,11.20
2019-06-26T22:46:30.701Z,11.45
2019-06-26T22:51:35.085Z,10.75
2019-06-26T22:56:38.571Z,12.07
2019-06-26T23:01:44.563Z,11.03
2019-06-26T23:06:47.681Z,11.20
2019-06-26T23:11:50.417Z,10.48
2019-06-26T23:16:54.370Z,10.60
2019-06-26T23:21:56.901Z,11.00
2019-06-26T23:27:05.092Z,11.80
2019-06-26T23:32:10.474Z,10.78
2019-06-26T23:37:12.844Z,11.12
2019-06-26T23:42:14.918Z,11.65
2019-06-26T23:47:18.203Z,10.32
2019-06-26T23:52:21.448Z,10.50
2019-06-26T23:57:36.074Z,9.83
